Time;durP1;ratioP1;P1;durP2;ratioP2;P2;SDS_P1;SDS_P2;PMS_P1;PMS_P2;Temp;Humidity;BMP_temperature;BMP_pressure;BME280_temperature;BME280_humidity;BME280_pressure;Samples;Min_cycle;Max_cycle;Signal;HPM_P1;HPM_P2
2022/06/03 00:00:04;;;;;;;3.20;1.60;;;;;;;17.16;49.81;99594.19;336470;29;1599;-81
2022/06/03 00:00:22;;;;;;;2.17;1.30;;;;;;;17.20;50.02;99596.59;336795;29;1055;-81
2022/06/03 00:01:09;;;;;;;3.28;1.60;;;;;;;17.19;50.20;99595.78;337641;29;1226;-80
2022/06/03 00:01:40;;;;;;;2.63;1.63;;;;;;;17.22;49.50;99597.34;336521;29;1143;-81
2022/06/03 00:01:55;;;;;;;1.50;1.33;;;;;;;17.21;49.58;99598.31;338720;29;1013;-80
2022/06/03 00:02:42;;;;;;;2.22;1.45;;;;;;;17.17;49.17;99598.47;338354;29;977;-81
2022/06/03 00:03:25;;;;;;;1.63;1.30;;;;;;;17.17;48.83;99595.84;333932;29;1099;-81
2022/06/03 00:04:10;;;;;;;1.85;1.40;;;;;;;17.16;49.63;99588.94;334495;29;1823;-78
2022/06/03 00:04:52;;;;;;;3.17;1.67;;;;;;;17.17;49.72;99601.09;338898;29;1224;-81
2022/06/03 00:05:04;;;;;;;2.40;1.40;;;;;;;17.10;49.20;99596.31;340319;29;1479;-80
2022/06/03 00:05:20;;;;;;;2.22;1.50;;;;;;;17.04;49.12;99594.06;339127;29;1966;-81
2022/06/03 00:05:48;;;;;;;4.10;1.70;;;;;;;17.04;50.12;99589.66;340000;29;1189;-81
2022/06/03 00:06:29;;;;;;;2.60;1.50;;;;;;;17.06;49.98;99590.41;339683;29;1781;-81
2022/06/03 00:06:50;;;;;;;2.33;1.47;;;;;;;17.09;49.67;99595.47;334167;29;1182;-81
2022/06/03 00:07:27;;;;;;;3.75;1.48;;;;;;;17.10;49.79;99591.94;338979;29;1167;-81
2022/06/03 00:07:42;;;;;;;2.80;1.50;;;;;;;17.06;50.18;99598.28;341061;29;1999;-81
2022/06/03 00:08:33;;;;;;;3.10;1.50;;;;;;;17.07;49.53;99594.72;339712;29;1617;-82
2022/06/03 00:09:07;;;;;;;1.92;1.70;;;;;;;17.12;50.22;99592.69;340289;29;2244;-81
2022/06/03 00:09:37;;;;;;;2.85;1.45;;;;;;;17.10;49.85;99589.31;339488;29;1401;-81
2022/06/03 00:10:08;;;;;;;2.35;1.60;;;;;;;17.09;49.75;99587.59;339113;29;1420;-82
2022/06/03 00:10:41;;;;;;;2.90;1.50;;;;;;;17.09;50.38;99587.59;340295;29;1049;-81
2022/06/03 00:11:01;;;;;;;2.28;1.50;;;;;;;17.13;49.63;99583.84;335086;29;975;-82
2022/06/03 00:11:42;;;;;;;1.75;1.50;;;;;;;17.15;49.78;99586.38;335699;29;2059;-82
2022/06/03 00:12:04;;;;;;;2.85;1.42;;;;;;;17.16;49.39;99588.94;338834;29;1095;-81
2022/06/03 00:12:39;;;;;;;2.78;1.40;;;;;;;17.17;49.93;99593.22;338506;29;1065;-82
2022/06/03 00:13:02;;;;;;;2.47;1.50;;;;;;;17.13;49.82;99583.84;334811;29;1841;-81
2022/06/03 00:13:31;;;;;;;2.50;1.60;;;;;;;17.14;49.46;99584.69;335780;29;976;-81
2022/06/03 00:14:05;;;;;;;4.30;1.58;;;;;;;17.13;49.70;99583.00;335462;29;1827;-82
2022/06/03 00:14:48;;;;;;;2.28;1.40;;;;;;;17.08;50.07;99585.94;339982;29;1171;-82
2022/06/03 00:15:11;;;;;;;2.33;1.48;;;;;;;17.07;49.11;99586.00;338622;29;1218;-82
2022/06/03 00:15:39;;;;;;;1.92;1.33;;;;;;;17.06;50.28;99582.53;337545;29;1207;-81
2022/06/03 00:16:24;;;;;;;2.20;1.50;;;;;;;17.10;49.84;99577.94;338261;29;1667;-82
2022/06/03 00:16:48;;;;;;;2.53;1.50;;;;;;;17.12;49.84;99579.56;339581;29;1805;-81
2022/06/03 00:17:14;;;;;;;3.05;1.50;;;;;;;17.12;49.63;99579.56;338945;29;1192;-82
2022/06/03 00:17:31;;;;;;;3.13;1.48;;;;;;;17.11;49.59;99580.47;339555;29;1219;-81
2022/06/03 00:17:55;;;;;;;3.30;1.50;;;;;;;17.09;49.61;99582.34;340625;29;1631;-81
2022/06/03 00:18:48;;;;;;;2.50;1.55;;;;;;;17.13;49.96;99581.22;340289;29;2097;-82
2022/06/03 00:19:11;;;;;;;1.60;1.30;;;;;;;17.14;49.49;99582.94;339798;29;1332;-82
2022/06/03 00:19:28;;;;;;;2.30;1.50;;;;;;;17.12;49.39;99576.91;340646;29;1062;-80
2022/06/03 00:19:55;;;;;;;2.00;1.40;;;;;;;17.10;49.66;99577.94;341396;29;1642;-81
2022/06/03 00:20:12;;;;;;;2.55;1.52;;;;;;;17.01;49.85;99584.59;339432;29;1182;-80
2022/06/03 00:20:31;;;;;;;5.32;1.50;;;;;;;17.04;49.89;99584.41;338933;29;1046;-82
2022/06/03 00:20:55;;;;;;;1.60;1.48;;;;;;;17.04;49.75;99576.50;338312;29;1150;-82
2022/06/03 00:21:20;;;;;;;1.88;1.48;;;;;;;17.04;49.70;99584.41;337483;29;1142;-82
2022/06/03 00:21:52;;;;;;;2.00;1.42;;;;;;;17.02;49.61;99575.75;336178;29;869;-81
2022/06/03 00:22:29;;;;;;;4.28;1.65;;;;;;;17.01;49.30;99574.09;336740;29;1101;-81
2022/06/03 00:22:53;;;;;;;2.30;1.63;;;;;;;17.04;49.18;99571.25;338975;29;1040;-81
2022/06/03 00:23:23;;;;;;;2.10;1.40;;;;;;;17.05;49.10;99572.13;339329;29;1620;-82
2022/06/03 00:23:54;;;;;;;1.98;1.70;;;;;;;17.05;49.57;99575.59;341375;29;1380;-81
2022/06/03 00:24:38;;;;;;;1.35;1.25;;;;;;;17.09;49.06;99568.38;339099;29;876;-81
2022/06/03 00:25:02;;;;;;;3.08;1.50;;;;;;;17.11;48.90;99569.97;339303;29;2053;-80
2022/06/03 00:25:32;;;;;;;3.00;1.30;;;;;;;17.13;49.09;99568.09;340571;29;858;-82
2022/06/03 00:26:02;;;;;;;2.33;1.50;;;;;;;17.06;49.44;99572.00;340199;29;1780;-81
2022/06/03 00:26:46;;;;;;;3.85;1.52;;;;;;;16.92;49.56;99572.00;341772;29;852;-82
2022/06/03 00:27:17;;;;;;;1.67;1.48;;;;;;;16.95;49.61;99574.47;338598;29;1094;-82
2022/06/03 00:27:40;;;;;;;2.60;1.50;;;;;;;16.96;49.26;99568.25;339143;29;1115;-81
2022/06/03 00:28:28;;;;;;;1.73;1.50;;;;;;;16.98;50.04;99571.63;341521;29;1226;-82
2022/06/03 00:29:07;;;;;;;1.92;1.40;;;;;;;16.96;49.39;99570.88;340983;28;1193;-82
2022/06/03 00:29:36;;;;;;;1.80;1.50;;;;;;;16.95;49.20;99569.22;340382;29;1255;-81
2022/06/03 00:30:03;;;;;;;2.40;1.40;;;;;;;16.98;49.25;99569.00;340517;29;1067;-81
2022/06/03 00:30:42;;;;;;;2.08;1.40;;;;;;;16.98;49.45;99569.00;340160;29;1490;-82
2022/06/03 00:31:25;;;;;;;2.97;1.60;;;;;;;16.98;49.29;99574.25;339137;29;1229;-82
2022/06/03 00:32:10;;;;;;;1.85;1.40;;;;;;;16.96;49.59;99576.13;339438;29;1024;-81
2022/06/03 00:32:57;;;;;;;3.20;1.42;;;;;;;16.90;49.36;99566.00;339988;29;1045;-81
2022/06/03 00:33:30;;;;;;;1.92;1.33;;;;;;;16.87;49.78;99572.28;338470;29;1746;-81
2022/06/03 00:34:06;;;;;;;2.05;1.40;;;;;;;16.87;49.85;99566.22;341397;29;1265;-81
2022/06/03 00:34:26;;;;;;;1.80;1.30;;;;;;;16.86;49.89;99567.13;339911;29;1073;-81
2022/06/03 00:35:09;;;;;;;3.08;1.42;;;;;;;16.85;49.85;99573.34;340951;29;1786;-82
2022/06/03 00:35:45;;;;;;;4.72;1.52;;;;;;;16.84;49.90;99572.50;340043;29;1116;-82
2022/06/03 00:36:25;;;;;;;1.52;1.42;;;;;;;16.85;50.01;99575.97;339940;29;1185;-82
2022/06/03 00:36:48;;;;;;;2.13;1.40;;;;;;;16.83;50.16;99564.69;340197;29;1840;-82
2022/06/03 00:37:48;;;;;;;2.72;1.30;;;;;;;16.77;50.02;99574.59;339874;29;1051;-82
2022/06/03 00:38:18;;;;;;;2.63;1.50;;;;;;;16.73;51.12;99570.47;335108;29;1246;-81
2022/06/03 00:38:59;;;;;;;1.85;1.45;;;;;;;16.72;50.64;99573.16;334005;29;1207;-81
2022/06/03 00:39:34;;;;;;;1.83;1.40;;;;;;;16.66;50.57;99571.78;334975;29;1788;-81
2022/06/03 00:39:58;;;;;;;2.25;1.20;;;;;;;16.68;50.57;99572.53;330914;29;1774;-81
2022/06/03 00:40:29;;;;;;;2.85;1.48;;;;;;;16.68;51.49;99572.53;334909;29;1716;-81
2022/06/03 00:41:19;;;;;;;1.60;1.50;;;;;;;16.70;50.45;99570.66;333876;29;924;-82
2022/06/03 00:42:01;;;;;;;1.63;1.42;;;;;;;16.71;50.10;99569.69;334518;29;1550;-82
2022/06/03 00:42:39;;;;;;;2.63;1.40;;;;;;;16.71;50.14;99564.44;335068;29;942;-81
2022/06/03 00:43:12;;;;;;;1.92;1.40;;;;;;;16.75;49.78;99571.22;335303;29;1822;-81
2022/06/03 00:44:02;;;;;;;1.65;1.20;;;;;;;16.78;49.30;99568.41;332248;29;1047;-81
2022/06/03 00:44:40;;;;;;;2.33;1.38;;;;;;;16.83;50.05;99564.69;340113;29;926;-82
2022/06/03 00:45:19;;;;;;;3.10;1.50;;;;;;;16.81;49.90;99572.66;337636;29;1677;-81
2022/06/03 00:45:56;;;;;;;2.75;1.40;;;;;;;16.81;49.83;99572.66;337978;29;1625;-81
2022/06/03 00:46:18;;;;;;;2.97;1.42;;;;;;;16.82;49.54;99563.00;341679;29;1127;-82
2022/06/03 00:47:08;;;;;;;2.33;1.30;;;;;;;16.85;49.29;99561.03;341858;28;1188;-82
2022/06/03 00:47:41;;;;;;;3.05;1.38;;;;;;;16.85;49.16;99566.28;340524;29;1587;-81
2022/06/03 00:48:11;;;;;;;1.63;1.45;;;;;;;16.85;49.44;99568.91;339942;29;1079;-82
2022/06/03 00:48:42;;;;;;;2.28;1.30;;;;;;;16.78;48.94;99571.03;340285;29;862;-81
2022/06/03 00:49:32;;;;;;;1.52;1.30;;;;;;;16.77;48.04;99571.97;338459;29;1620;-82
2022/06/03 00:50:11;;;;;;;2.83;1.52;;;;;;;16.86;48.33;99568.00;333990;29;1175;-82
2022/06/03 00:50:42;;;;;;;2.78;1.40;;;;;;;16.94;48.35;99572.75;335405;29;1103;-82
2022/06/03 00:51:12;;;;;;;1.40;1.20;;;;;;;16.95;48.04;99566.59;339836;29;951;-82
2022/06/03 00:51:57;;;;;;;2.88;1.30;;;;;;;16.96;48.44;99570.88;339010;29;1048;-81
2022/06/03 00:52:44;;;;;;;2.67;1.40;;;;;;;16.94;48.10;99562.25;337293;29;1625;-81
2022/06/03 00:53:11;;;;;;;3.15;1.35;;;;;;;16.96;47.60;99573.50;336401;29;1377;-81
2022/06/03 00:53:35;;;;;;;2.42;1.20;;;;;;;17.02;47.80;99570.50;336922;29;1087;-82
2022/06/03 00:54:00;;;;;;;1.85;1.30;;;;;;;17.06;48.20;99572.00;337746;29;1773;-82
2022/06/03 00:54:20;;;;;;;1.73;1.23;;;;;;;17.06;47.95;99572.00;339801;29;2156;-81
2022/06/03 00:54:50;;;;;;;1.55;1.30;;;;;;;17.09;47.88;99569.22;340223;29;1253;-82
2022/06/03 00:55:49;;;;;;;1.85;1.30;;;;;;;17.13;47.88;99575.13;340291;29;1725;-81
2022/06/03 00:56:28;;;;;;;1.80;1.40;;;;;;;17.10;48.12;99573.56;340273;29;861;-82
2022/06/03 00:56:58;;;;;;;2.17;1.30;;;;;;;17.11;48.06;99569.13;341430;29;1943;-82
2022/06/03 00:57:51;;;;;;;4.05;1.40;;;;;;;17.12;47.57;99566.41;340295;29;1120;-82
2022/06/03 00:58:18;;;;;;;2.13;1.30;;;;;;;17.10;47.26;99568.28;339112;29;860;-82
2022/06/03 00:58:32;;;;;;;1.40;1.30;;;;;;;17.11;47.73;99559.47;339790;29;1232;-82
2022/06/03 00:59:06;;;;;;;1.50;1.25;;;;;;;17.13;47.71;99578.59;337771;29;1310;-82
2022/06/03 00:59:47;;;;;;;1.77;1.33;;;;;;;17.10;47.37;99568.28;338034;29;865;-82
2022/06/03 01:00:08;;;;;;;1.30;1.20;;;;;;;17.13;47.31;99568.09;330918;29;1372;-82
2022/06/03 01:00:35;;;;;;;1.50;1.33;;;;;;;17.10;47.05;99568.28;332348;29;1082;-82
2022/06/03 01:01:09;;;;;;;1.80;1.20;;;;;;;17.12;47.04;99562.94;333421;29;1768;-82
2022/06/03 01:01:24;;;;;;;1.30;1.20;;;;;;;17.17;47.01;99568.75;338583;29;1187;-80
2022/06/03 01:02:07;;;;;;;1.40;1.20;;;;;;;17.19;47.30;99571.28;336482;29;1749;-82
2022/06/03 01:02:43;;;;;;;3.13;1.55;;;;;;;17.19;47.06;99566.88;336323;29;1723;-82
2022/06/03 01:03:19;;;;;;;1.27;1.17;;;;;;;17.20;47.58;99567.72;337716;29;913;-81
2022/06/03 01:03:54;;;;;;;2.53;1.25;;;;;;;17.22;47.20;99571.09;339570;29;1598;-81
2022/06/03 01:04:33;;;;;;;1.58;1.30;;;;;;;17.26;46.78;99569.97;340139;29;1254;-82
2022/06/03 01:05:04;;;;;;;1.75;1.30;;;;;;;17.27;46.93;99569.03;341748;28;1749;-82
2022/06/03 01:06:11;;;;;;;1.55;1.40;;;;;;;17.22;46.81;99565.84;340095;29;1977;-82
2022/06/03 01:06:49;;;;;;;2.08;1.20;;;;;;;17.21;46.87;99569.41;332328;29;1401;-81
2022/06/03 01:07:19;;;;;;;2.67;1.30;;;;;;;17.23;46.93;99564.91;329569;29;1037;-81
2022/06/03 01:08:09;;;;;;;2.22;1.30;;;;;;;17.24;46.87;99569.22;341269;29;1355;-81
2022/06/03 01:08:50;;;;;;;2.15;1.30;;;;;;;17.15;46.69;99565.38;341551;28;1107;-82
2022/06/03 01:09:10;;;;;;;2.42;1.27;;;;;;;17.13;46.92;99573.34;340538;29;874;-82
2022/06/03 01:09:31;;;;;;;1.90;1.30;;;;;;;17.16;46.91;99567.06;340201;29;1228;-82
2022/06/03 01:09:49;;;;;;;2.13;1.27;;;;;;;17.18;46.83;99565.19;341385;29;1758;-80
2022/06/03 01:10:07;;;;;;;1.95;1.38;;;;;;;17.22;46.90;99566.66;341034;29;1086;-81
2022/06/03 01:10:50;;;;;;;1.92;1.40;;;;;;;17.26;46.92;99567.34;341194;29;1584;-82
2022/06/03 01:11:42;;;;;;;1.88;1.40;;;;;;;17.24;46.65;99574.47;340926;29;2085;-80
2022/06/03 01:12:27;;;;;;;2.28;1.27;;;;;;;17.16;47.09;99567.06;340957;29;1075;-82
2022/06/03 01:13:01;;;;;;;2.03;1.20;;;;;;;17.17;46.94;99563.50;341147;29;1771;-82
2022/06/03 01:13:21;;;;;;;2.00;1.30;;;;;;;17.17;46.88;99569.59;340496;29;876;-81
2022/06/03 01:14:30;;;;;;;2.20;1.40;;;;;;;17.25;46.94;99576.16;339215;29;1534;-81
2022/06/03 01:15:00;;;;;;;2.80;1.30;;;;;;;17.27;46.99;99564.63;336686;29;2063;-82
2022/06/03 01:15:34;;;;;;;1.40;1.20;;;;;;;17.29;46.97;99578.50;336513;29;1171;-82
2022/06/03 01:16:05;;;;;;;1.55;1.30;;;;;;;17.31;47.16;99570.53;337235;29;1080;-81
2022/06/03 01:16:23;;;;;;;2.05;1.25;;;;;;;17.31;47.11;99570.53;336198;29;1145;-82
2022/06/03 01:17:08;;;;;;;2.00;1.25;;;;;;;17.30;46.91;99568.84;337502;29;1682;-82
2022/06/03 01:17:35;;;;;;;2.05;1.45;;;;;;;17.29;46.71;99575.88;335142;29;1155;-81
2022/06/03 01:17:59;;;;;;;2.38;1.50;;;;;;;17.30;47.18;99569.66;335087;29;1723;-82
2022/06/03 01:18:36;;;;;;;1.58;1.20;;;;;;;17.31;47.16;99570.53;335041;29;1123;-82
2022/06/03 01:18:59;;;;;;;1.30;1.20;;;;;;;17.29;47.29;99577.66;340411;29;1523;-82
2022/06/03 01:19:20;;;;;;;1.80;1.30;;;;;;;17.29;47.07;99577.66;339056;29;1065;-81
2022/06/03 01:19:32;;;;;;;2.38;1.30;;;;;;;17.29;47.75;99573.25;340075;29;1215;-81
2022/06/03 01:20:06;;;;;;;3.53;1.35;;;;;;;17.29;47.46;99570.63;339813;29;1485;-81
2022/06/03 01:20:52;;;;;;;1.92;1.35;;;;;;;17.30;48.07;99574.94;338793;29;1071;-82
2022/06/03 01:21:07;;;;;;;1.70;1.40;;;;;;;17.33;47.83;99573.91;340218;29;1231;-82
2022/06/03 01:21:42;;;;;;;2.63;1.23;;;;;;;17.33;48.04;99573.91;340150;29;1181;-82
2022/06/03 01:22:15;;;;;;;1.80;1.23;;;;;;;17.33;47.30;99579.16;339096;29;910;-82
2022/06/03 01:22:33;;;;;;;1.40;1.30;;;;;;;17.27;47.18;99574.28;339532;29;1311;-81
2022/06/03 01:22:57;;;;;;;1.50;1.30;;;;;;;17.22;47.37;99573.72;338983;29;1097;-82
2022/06/03 01:24:01;;;;;;;3.55;1.23;;;;;;;17.23;47.06;99575.41;337768;29;1110;-82
2022/06/03 01:24:38;;;;;;;4.05;1.40;;;;;;;17.25;47.46;99576.16;332773;29;1069;-81
2022/06/03 01:24:59;;;;;;;2.03;1.42;;;;;;;17.25;47.58;99576.16;337808;29;881;-81
2022/06/03 01:25:33;;;;;;;2.05;1.35;;;;;;;17.25;47.57;99576.16;338367;29;1067;-82
2022/06/03 01:26:07;;;;;;;3.00;1.50;;;;;;;17.24;47.42;99577.94;337745;29;865;-82
2022/06/03 01:26:24;;;;;;;2.35;1.40;;;;;;;17.26;47.79;99569.97;338963;29;1115;-82
2022/06/03 01:27:23;;;;;;;3.40;1.33;;;;;;;17.20;47.61;99583.47;339270;29;1089;-82
2022/06/03 01:28:00;;;;;;;2.60;1.40;;;;;;;17.19;47.81;99581.81;339872;29;1059;-81
2022/06/03 01:28:27;;;;;;;2.50;1.30;;;;;;;17.21;47.70;99572.03;341195;28;1659;-82
2022/06/03 01:29:36;;;;;;;3.33;1.30;;;;;;;17.24;47.40;99579.72;342080;28;1602;-81
2022/06/03 01:30:18;;;;;;;1.70;1.45;;;;;;;17.17;47.93;99577.47;340094;29;1277;-81
2022/06/03 01:30:57;;;;;;;1.70;1.20;;;;;;;17.15;47.75;99576.72;340231;29;1772;-81
2022/06/03 01:31:24;;;;;;;1.50;1.30;;;;;;;17.13;47.49;99577.75;338832;29;1082;-82
2022/06/03 01:31:58;;;;;;;1.40;1.30;;;;;;;17.09;48.07;99576.25;337705;29;1023;-82
2022/06/03 01:32:19;;;;;;;1.55;1.30;;;;;;;17.06;48.04;99579.91;339020;29;1059;-82
2022/06/03 01:32:45;;;;;;;3.10;1.48;;;;;;;17.01;48.23;99579.34;337378;29;1190;-82
2022/06/03 01:33:05;;;;;;;2.22;1.20;;;;;;;17.01;48.41;99581.13;337655;29;1056;-81
2022/06/03 01:33:36;;;;;;;1.52;1.30;;;;;;;16.97;48.67;99573.44;339070;29;876;-82
2022/06/03 01:34:06;;;;;;;1.65;1.30;;;;;;;16.95;48.16;99582.34;338505;29;1209;-81
2022/06/03 01:34:18;;;;;;;2.92;1.50;;;;;;;16.93;47.91;99576.34;338738;29;1359;-82
2022/06/03 01:34:36;;;;;;;2.60;1.40;;;;;;;16.92;48.08;99579.88;338811;29;1221;-82
2022/06/03 01:34:55;;;;;;;2.10;1.20;;;;;;;16.90;48.44;99579.13;337904;29;845;-81
2022/06/03 01:35:25;;;;;;;3.03;1.38;;;;;;;16.89;48.37;99582.72;337374;29;1098;-82
2022/06/03 01:36:14;;;;;;;2.70;1.30;;;;;;;16.86;48.32;99575.88;337333;29;1098;-81
2022/06/03 01:36:32;;;;;;;1.60;1.33;;;;;;;16.83;50.22;99580.47;339785;29;1188;-82
2022/06/03 01:37:02;;;;;;;2.15;1.50;;;;;;;16.81;49.92;99577.03;340589;29;850;-81
2022/06/03 01:37:25;;;;;;;1.60;1.30;;;;;;;16.79;49.71;99574.50;339854;29;1241;-81
2022/06/03 01:37:54;;;;;;;2.50;1.20;;;;;;;16.78;49.86;99578.91;338129;29;867;-82
2022/06/03 01:38:21;;;;;;;3.63;1.42;;;;;;;16.77;50.01;99577.22;339013;29;1458;-81
2022/06/03 01:38:57;;;;;;;3.47;1.40;;;;;;;16.73;50.59;99580.97;339621;29;1043;-82
2022/06/03 01:39:27;;;;;;;2.47;1.42;;;;;;;16.74;50.19;99574.78;338988;29;1072;-82
2022/06/03 01:39:58;;;;;;;1.60;1.30;;;;;;;16.71;49.96;99577.56;337816;29;1093;-82
2022/06/03 01:40:28;;;;;;;2.45;1.52;;;;;;;16.62;50.48;99574.66;337634;29;1196;-82
2022/06/03 01:41:32;;;;;;;3.20;1.60;;;;;;;16.62;51.01;99577.28;339238;29;1045;-82
2022/06/03 01:42:02;;;;;;;2.42;1.40;;;;;;;16.61;50.57;99575.59;335928;29;1583;-81
2022/06/03 01:42:14;;;;;;;3.30;1.40;;;;;;;16.60;50.31;99581.75;338760;29;1126;-81
2022/06/03 01:42:51;;;;;;;2.60;1.48;;;;;;;16.58;50.48;99568.75;338105;29;1203;-82
2022/06/03 01:43:22;;;;;;;2.75;1.42;;;;;;;16.55;50.38;99571.53;338978;29;956;-82
2022/06/03 01:43:47;;;;;;;1.73;1.50;;;;;;;16.53;50.64;99574.25;338537;29;1424;-82
2022/06/03 01:44:30;;;;;;;2.38;1.50;;;;;;;16.47;51.07;99569.38;341446;29;866;-82
2022/06/03 01:45:13;;;;;;;2.13;1.48;;;;;;;16.41;50.66;99568.88;343159;28;859;-81
2022/06/03 01:45:34;;;;;;;2.65;1.40;;;;;;;16.42;50.61;99570.56;337830;29;1280;-82
2022/06/03 01:46:28;;;;;;;2.00;1.40;;;;;;;16.44;50.07;99576.56;339702;28;1203;-81
2022/06/03 01:47:18;;;;;;;2.72;1.40;;;;;;;16.42;49.73;99566.19;337605;29;1221;-81
2022/06/03 01:47:30;;;;;;;2.55;1.38;;;;;;;16.45;50.05;99565.16;342034;29;864;-81
2022/06/03 01:48:03;;;;;;;2.85;1.30;;;;;;;16.46;50.02;99574.69;340896;29;1492;-81
2022/06/03 01:48:26;;;;;;;1.85;1.58;;;;;;;16.47;50.08;99574.63;340426;29;871;-81
2022/06/03 01:49:10;;;;;;;1.70;1.52;;;;;;;16.45;50.75;99573.84;339962;29;1019;-82
2022/06/03 01:49:33;;;;;;;2.10;1.45;;;;;;;16.44;50.36;99579.19;338978;29;1040;-81
2022/06/03 01:49:57;;;;;;;2.08;1.40;;;;;;;16.44;50.81;99572.19;341018;29;1559;-82
2022/06/03 01:50:37;;;;;;;2.97;1.45;;;;;;;16.46;51.23;99574.69;341653;29;1090;-82
2022/06/03 01:51:17;;;;;;;1.50;1.30;;;;;;;16.42;51.42;99581.06;337757;29;1889;-82
2022/06/03 01:52:06;;;;;;;4.05;1.60;;;;;;;16.46;51.13;99572.06;336355;29;1919;-82
2022/06/03 01:52:55;;;;;;;2.05;1.50;;;;;;;16.43;50.80;99577.50;338869;29;1093;-82
2022/06/03 01:53:39;;;;;;;2.55;1.48;;;;;;;16.43;50.01;99572.25;339873;29;1633;-82
2022/06/03 01:54:16;;;;;;;2.35;1.30;;;;;;;16.46;50.11;99580.81;334711;29;1771;-82
2022/06/03 01:54:28;;;;;;;2.30;1.50;;;;;;;16.44;49.92;99573.94;335964;29;1266;-82
2022/06/03 01:54:54;;;;;;;1.63;1.40;;;;;;;16.44;49.55;99577.44;336197;29;1111;-82
2022/06/03 01:55:18;;;;;;;1.77;1.50;;;;;;;16.47;49.72;99584.28;335530;29;1757;-81
2022/06/03 01:55:42;;;;;;;2.75;1.42;;;;;;;16.47;49.89;99584.28;339882;29;1190;-82
2022/06/03 01:56:45;;;;;;;2.50;1.60;;;;;;;16.47;50.59;99573.78;338814;29;1128;-82
2022/06/03 01:56:59;;;;;;;3.58;1.52;;;;;;;16.40;49.22;99580.28;334318;29;882;-82
2022/06/03 01:57:26;;;;;;;3.47;1.50;;;;;;;16.42;49.85;99579.28;336079;29;1064;-82
2022/06/03 01:58:13;;;;;;;2.35;1.50;;;;;;;16.44;50.06;99584.44;334671;29;1835;-82
2022/06/03 01:58:43;;;;;;;1.63;1.30;;;;;;;16.46;49.59;99580.81;339752;29;1458;-82
2022/06/03 01:59:33;;;;;;;2.88;1.70;;;;;;;16.47;49.89;99579.03;338701;29;1057;-82
2022/06/03 02:00:11;;;;;;;2.90;1.30;;;;;;;16.48;49.64;99581.56;338462;29;1496;-82
2022/06/03 02:00:37;;;;;;;1.90;1.70;;;;;;;16.47;49.25;99584.28;339795;29;884;-82
2022/06/03 02:01:11;;;;;;;1.67;1.40;;;;;;;16.39;49.71;99582.09;338512;29;1032;-82
2022/06/03 02:01:35;;;;;;;1.63;1.38;;;;;;;16.35;50.18;99581.41;337460;29;1611;-82
2022/06/03 02:02:31;;;;;;;2.03;1.40;;;;;;;16.37;49.75;99576.09;338715;29;1076;-82
2022/06/03 02:02:55;;;;;;;2.58;1.60;;;;;;;16.37;49.94;99584.78;340794;29;2019;-81
2022/06/03 02:03:31;;;;;;;2.08;1.60;;;;;;;16.33;49.83;99578.03;340552;29;1300;-82
2022/06/03 02:04:07;;;;;;;2.45;1.40;;;;;;;16.28;49.29;99574.84;341027;29;1757;-81
2022/06/03 02:04:42;;;;;;;3.85;1.55;;;;;;;16.28;49.74;99577.47;340543;29;893;-82
2022/06/03 02:05:16;;;;;;;2.28;1.40;;;;;;;16.26;50.32;99581.94;339180;29;844;-82
2022/06/03 02:06:00;;;;;;;2.42;1.50;;;;;;;16.22;50.81;99579.56;338889;29;1250;-82
2022/06/03 02:06:43;;;;;;;2.83;1.40;;;;;;;16.23;50.48;99576.88;340690;29;959;-81
2022/06/03 02:07:14;;;;;;;2.15;1.40;;;;;;;16.21;50.45;99568.25;341618;29;1689;-81
2022/06/03 02:07:40;;;;;;;1.92;1.40;;;;;;;16.18;50.43;99573.69;340753;29;1249;-82
2022/06/03 02:08:10;;;;;;;2.28;1.45;;;;;;;16.13;48.64;99573.09;341693;29;984;-82
2022/06/03 02:08:54;;;;;;;1.75;1.33;;;;;;;16.14;48.76;99572.16;340765;29;1731;-82
2022/06/03 02:09:38;;;;;;;2.80;1.40;;;;;;;16.13;49.38;99573.09;340593;29;858;-82
2022/06/03 02:10:21;;;;;;;1.98;1.40;;;;;;;16.18;49.96;99573.69;341416;29;1110;-81
2022/06/03 02:10:47;;;;;;;2.83;1.40;;;;;;;16.19;50.11;99570.13;339989;29;1204;-82
2022/06/03 02:11:27;;;;;;;2.00;1.30;;;;;;;16.18;49.42;99571.06;340094;29;1663;-82
2022/06/03 02:11:54;;;;;;;2.40;1.48;;;;;;;16.19;49.46;99570.13;340126;29;1773;-82
2022/06/03 02:12:17;;;;;;;1.70;1.30;;;;;;;16.16;50.20;99567.69;340134;29;1093;-82
2022/06/03 02:12:53;;;;;;;1.50;1.30;;;;;;;16.15;50.43;99572.06;340994;29;1234;-82
2022/06/03 02:13:26;;;;;;;1.92;1.42;;;;;;;16.12;49.68;99568.78;340526;29;1489;-82
2022/06/03 02:14:03;;;;;;;1.70;1.42;;;;;;;16.11;49.57;99572.31;339987;29;2038;-82
2022/06/03 02:14:48;;;;;;;1.98;1.50;;;;;;;16.10;49.79;99570.66;340455;29;963;-82
2022/06/03 02:15:18;;;;;;;2.03;1.50;;;;;;;16.07;49.70;99571.66;339141;29;1055;-82
2022/06/03 02:16:03;;;;;;;1.67;1.40;;;;;;;16.05;49.97;99565.66;341009;29;1253;-82
2022/06/03 02:16:43;;;;;;;2.28;1.40;;;;;;;16.06;49.84;99563.91;339731;29;1633;-82
2022/06/03 02:17:15;;;;;;;2.25;1.40;;;;;;;16.07;49.96;99565.56;340027;29;1836;-82
2022/06/03 02:18:00;;;;;;;4.40;1.40;;;;;;;16.07;49.99;99565.56;335536;29;1294;-82
2022/06/03 02:18:36;;;;;;;2.55;1.40;;;;;;;16.00;51.05;99565.09;337580;29;1062;-81
2022/06/03 02:19:09;;;;;;;2.80;1.60;;;;;;;15.98;50.19;99562.53;338227;29;1077;-82
2022/06/03 02:19:33;;;;;;;5.15;1.65;;;;;;;16.04;49.99;99560.50;338458;29;1166;-82
2022/06/03 02:20:06;;;;;;;1.63;1.30;;;;;;;15.92;50.70;99562.03;338511;29;1711;-82
2022/06/03 02:20:18;;;;;;;2.20;1.50;;;;;;;15.87;50.37;99559.66;337626;29;960;-81
2022/06/03 02:20:48;;;;;;;2.20;1.40;;;;;;;15.89;49.99;99556.97;337097;29;1287;-82
2022/06/03 02:21:09;;;;;;;3.08;1.52;;;;;;;15.91;50.34;99560.34;338043;29;873;-82
2022/06/03 02:21:38;;;;;;;2.80;1.60;;;;;;;15.95;49.78;99565.31;337834;29;873;-82
2022/06/03 02:21:59;;;;;;;2.85;1.50;;;;;;;15.99;50.72;99563.38;338768;29;1849;-82
2022/06/03 02:22:30;;;;;;;2.70;1.50;;;;;;;16.00;51.07;99564.22;340342;29;852;-82
2022/06/03 02:23:05;;;;;;;3.35;1.70;;;;;;;16.08;50.75;99562.88;340414;29;2174;-81
2022/06/03 02:23:54;;;;;;;1.63;1.45;;;;;;;16.13;50.27;99559.97;340356;29;1737;-82
2022/06/03 02:24:34;;;;;;;1.52;1.40;;;;;;;16.13;49.94;99567.84;340352;29;886;-81
2022/06/03 02:25:08;;;;;;;1.83;1.50;;;;;;;16.16;50.61;99565.06;340138;29;1059;-82
2022/06/03 02:25:31;;;;;;;2.08;1.30;;;;;;;16.22;49.74;99569.94;340145;29;1166;-82
2022/06/03 02:26:07;;;;;;;2.05;1.40;;;;;;;16.23;50.77;99561.13;340433;29;870;-82
2022/06/03 02:26:40;;;;;;;2.83;1.50;;;;;;;16.21;51.31;99564.78;339354;29;930;-82
2022/06/03 02:27:23;;;;;;;2.13;1.55;;;;;;;16.23;50.69;99561.13;339258;29;1810;-81
2022/06/03 02:27:43;;;;;;;2.60;1.50;;;;;;;16.23;50.94;99561.13;339979;29;1254;-82
2022/06/03 02:28:20;;;;;;;2.70;1.60;;;;;;;16.25;50.97;99564.50;340909;29;1761;-82
2022/06/03 02:28:48;;;;;;;2.40;1.63;;;;;;;16.17;50.59;99564.94;340368;29;1063;-82
2022/06/03 02:30:48;;;;;;;3.83;1.60;;;;;;;16.13;49.80;99558.19;337735;29;1809;-81
2022/06/03 02:31:21;;;;;;;2.25;1.50;;;;;;;16.14;49.80;99561.69;336448;29;1362;-82
2022/06/03 02:31:50;;;;;;;2.30;1.40;;;;;;;16.18;50.19;99568.44;340127;29;1293;-82
2022/06/03 02:32:41;;;;;;;2.38;1.50;;;;;;;16.19;50.57;99564.88;338752;29;1194;-81
2022/06/03 02:33:15;;;;;;;3.58;1.70;;;;;;;16.17;50.03;99566.72;337606;29;1200;-82
2022/06/03 02:33:35;;;;;;;2.63;1.40;;;;;;;16.15;49.44;99561.56;339002;29;882;-82
2022/06/03 02:34:11;;;;;;;2.97;1.48;;;;;;;16.12;49.15;99563.53;339494;29;1651;-82
2022/06/03 02:34:47;;;;;;;1.55;1.40;;;;;;;16.11;49.91;99556.59;340300;29;1064;-82
2022/06/03 02:35:21;;;;;;;2.40;1.40;;;;;;;16.13;50.04;99559.97;341003;29;2040;-82
2022/06/03 02:35:52;;;;;;;3.20;1.30;;;;;;;16.15;49.61;99558.09;340757;29;1247;-82
2022/06/03 02:36:41;;;;;;;1.60;1.30;;;;;;;16.18;50.19;99557.94;340480;29;1031;-81
2022/06/03 02:36:59;;;;;;;2.63;1.40;;;;;;;16.14;50.34;99556.44;340569;29;879;-82
2022/06/03 02:37:39;;;;;;;2.30;1.50;;;;;;;16.13;50.30;99554.72;340286;29;1542;-81
2022/06/03 02:37:57;;;;;;;3.97;1.50;;;;;;;16.18;49.29;99563.19;340217;29;1201;-82
2022/06/03 02:38:32;;;;;;;2.30;1.48;;;;;;;16.17;49.39;99561.50;338541;29;1117;-82
2022/06/03 02:39:02;;;;;;;2.78;1.33;;;;;;;16.18;49.44;99564.03;338380;29;1723;-82
2022/06/03 02:39:52;;;;;;;3.28;1.40;;;;;;;16.20;49.45;99555.22;339092;29;894;-81
2022/06/03 02:40:48;;;;;;;2.13;1.30;;;;;;;16.19;48.50;99559.63;337995;29;1580;-82
2022/06/03 02:41:12;;;;;;;2.30;1.40;;;;;;;16.20;48.99;99555.22;335890;29;1805;-83
2022/06/03 02:41:30;;;;;;;3.17;1.50;;;;;;;16.18;49.52;99557.94;334099;29;1064;-82